sensor_id;sensor_type;location;lat;lon;timestamp;pressure;altitude;pressure_sealevel;temperature;humidity
75788;BME280;64406;50.024;14.492;2023-12-20T00:00:08;97600.88;;;4.70;67.69
75788;BME280;64406;50.024;14.492;2023-12-20T00:02:34;97620.34;;;4.70;67.62
75788;BME280;64406;50.024;14.492;2023-12-20T00:05:00;97611.50;;;4.64;68.05
75788;BME280;64406;50.024;14.492;2023-12-20T00:07:26;97601.09;;;4.63;68.91
75788;BME280;64406;50.024;14.492;2023-12-20T00:09:51;97590.63;;;4.56;68.80
75788;BME280;64406;50.024;14.492;2023-12-20T00:12:17;97601.03;;;4.58;69.83
75788;BME280;64406;50.024;14.492;2023-12-20T00:14:43;97593.78;;;4.53;70.48
75788;BME280;64406;50.024;14.492;2023-12-20T00:17:08;97587.38;;;4.49;71.23
75788;BME280;64406;50.024;14.492;2023-12-20T00:19:34;97605.78;;;4.51;71.65
75788;BME280;64406;50.024;14.492;2023-12-20T00:21:59;97603.94;;;4.51;72.21
75788;BME280;64406;50.024;14.492;2023-12-20T00:24:25;97589.00;;;4.50;72.00
75788;BME280;64406;50.024;14.492;2023-12-20T00:26:50;97589.00;;;4.50;72.67
75788;BME280;64406;50.024;14.492;2023-12-20T00:29:16;97590.06;;;4.49;72.59
75788;BME280;64406;50.024;14.492;2023-12-20T00:31:42;97575.31;;;4.42;72.78
75788;BME280;64406;50.024;14.492;2023-12-20T00:34:07;97590.81;;;4.45;73.28
75788;BME280;64406;50.024;14.492;2023-12-20T00:36:33;97607.88;;;4.44;73.81
75788;BME280;64406;50.024;14.492;2023-12-20T00:38:59;97595.03;;;4.41;75.04
75788;BME280;64406;50.024;14.492;2023-12-20T00:41:24;97599.81;;;4.39;75.88
75788;BME280;64406;50.024;14.492;2023-12-20T00:43:50;97594.69;;;4.32;76.10
75788;BME280;64406;50.024;14.492;2023-12-20T00:46:15;97585.09;;;4.31;76.77
75788;BME280;64406;50.024;14.492;2023-12-20T00:48:41;97584.53;;;4.29;77.54
75788;BME280;64406;50.024;14.492;2023-12-20T00:51:07;97578.09;;;4.25;77.44
75788;BME280;64406;50.024;14.492;2023-12-20T00:53:33;97585.84;;;4.26;77.44
75788;BME280;64406;50.024;14.492;2023-12-20T00:55:59;97579.66;;;4.21;78.39
75788;BME280;64406;50.024;14.492;2023-12-20T00:58:24;97557.53;;;4.20;78.97
75788;BME280;64406;50.024;14.492;2023-12-20T01:00:50;97555.94;;;4.19;79.91
75788;BME280;64406;50.024;14.492;2023-12-20T01:03:16;97543.66;;;4.18;80.33
75788;BME280;64406;50.024;14.492;2023-12-20T01:05:42;97548.16;;;4.13;81.44
75788;BME280;64406;50.024;14.492;2023-12-20T01:08:07;97552.88;;;4.05;82.78
75788;BME280;64406;50.024;14.492;2023-12-20T01:10:33;97560.56;;;4.02;83.83
75788;BME280;64406;50.024;14.492;2023-12-20T01:12:59;97556.81;;;3.98;84.19
75788;BME280;64406;50.024;14.492;2023-12-20T01:15:24;97555.91;;;3.87;85.75
75788;BME280;64406;50.024;14.492;2023-12-20T01:17:51;97540.66;;;3.82;86.15
75788;BME280;64406;50.024;14.492;2023-12-20T01:20:16;97543.84;;;3.79;87.04
75788;BME280;64406;50.024;14.492;2023-12-20T01:22:42;97545.72;;;3.79;87.46
75788;BME280;64406;50.024;14.492;2023-12-20T01:25:08;97541.69;;;3.76;88.56
75788;BME280;64406;50.024;14.492;2023-12-20T01:27:34;97531.25;;;3.70;88.12
75788;BME280;64406;50.024;14.492;2023-12-20T01:30:00;97520.59;;;3.70;89.27
75788;BME280;64406;50.024;14.492;2023-12-20T01:32:25;97528.31;;;3.71;88.80
75788;BME280;64406;50.024;14.492;2023-12-20T01:34:51;97511.50;;;3.66;89.11
75788;BME280;64406;50.024;14.492;2023-12-20T01:37:17;97517.34;;;3.68;90.16
75788;BME280;64406;50.024;14.492;2023-12-20T01:39:42;97508.28;;;3.64;89.76
75788;BME280;64406;50.024;14.492;2023-12-20T01:42:08;97513.34;;;3.65;90.73
75788;BME280;64406;50.024;14.492;2023-12-20T01:44:33;97502.16;;;3.63;91.44
75788;BME280;64406;50.024;14.492;2023-12-20T01:46:59;97493.09;;;3.64;90.90
75788;BME280;64406;50.024;14.492;2023-12-20T01:49:25;97488.00;;;3.63;91.39
75788;BME280;64406;50.024;14.492;2023-12-20T01:51:51;97483.41;;;3.53;93.13
75788;BME280;64406;50.024;14.492;2023-12-20T01:54:19;97480.19;;;3.51;94.29
75788;BME280;64406;50.024;14.492;2023-12-20T01:56:45;97476.16;;;3.48;94.15
75788;BME280;64406;50.024;14.492;2023-12-20T01:59:11;97477.97;;;3.43;94.54
75788;BME280;64406;50.024;14.492;2023-12-20T02:01:36;97477.97;;;3.43;95.35
75788;BME280;64406;50.024;14.492;2023-12-20T02:04:02;97471.56;;;3.39;95.83
75788;BME280;64406;50.024;14.492;2023-12-20T02:06:30;97472.84;;;3.36;96.47
75788;BME280;64406;50.024;14.492;2023-12-20T02:08:58;97471.81;;;3.37;96.71
75788;BME280;64406;50.024;14.492;2023-12-20T02:11:25;97484.53;;;3.35;96.82
75788;BME280;64406;50.024;14.492;2023-12-20T02:13:51;97469.38;;;3.36;97.19
75788;BME280;64406;50.024;14.492;2023-12-20T02:16:17;97478.13;;;3.31;97.57
75788;BME280;64406;50.024;14.492;2023-12-20T02:18:43;97476.50;;;3.30;98.44
75788;BME280;64406;50.024;14.492;2023-12-20T02:21:10;97465.31;;;3.28;98.50
75788;BME280;64406;50.024;14.492;2023-12-20T02:23:35;97483.13;;;3.27;99.06
75788;BME280;64406;50.024;14.492;2023-12-20T02:26:03;97487.91;;;3.25;99.45
75788;BME280;64406;50.024;14.492;2023-12-20T02:28:29;97478.06;;;3.26;99.46
75788;BME280;64406;50.024;14.492;2023-12-20T02:30:55;97477.81;;;3.27;99.84
75788;BME280;64406;50.024;14.492;2023-12-20T02:33:20;97474.34;;;3.27;100.00
75788;BME280;64406;50.024;14.492;2023-12-20T02:35:46;97463.97;;;3.25;100.00
75788;BME280;64406;50.024;14.492;2023-12-20T02:38:12;97463.69;;;3.27;99.72
75788;BME280;64406;50.024;14.492;2023-12-20T02:40:38;97473.81;;;3.25;100.00
75788;BME280;64406;50.024;14.492;2023-12-20T02:43:03;97474.91;;;3.29;100.00
75788;BME280;64406;50.024;14.492;2023-12-20T02:45:29;97470.94;;;3.32;99.73
75788;BME280;64406;50.024;14.492;2023-12-20T02:47:55;97472.81;;;3.31;100.00
75788;BME280;64406;50.024;14.492;2023-12-20T02:50:21;97466.09;;;3.28;100.00
75788;BME280;64406;50.024;14.492;2023-12-20T02:52:47;97475.47;;;3.31;100.00
75788;BME280;64406;50.024;14.492;2023-12-20T02:55:13;97465.91;;;3.35;99.93
75788;BME280;64406;50.024;14.492;2023-12-20T02:57:38;97462.19;;;3.36;100.00
75788;BME280;64406;50.024;14.492;2023-12-20T03:00:10;97470.75;;;3.38;100.00
75788;BME280;64406;50.024;14.492;2023-12-20T03:02:36;97469.38;;;3.36;100.00
75788;BME280;64406;50.024;14.492;2023-12-20T03:05:03;97466.97;;;3.34;100.00
75788;BME280;64406;50.024;14.492;2023-12-20T03:07:28;97476.06;;;3.38;100.00
75788;BME280;64406;50.024;14.492;2023-12-20T03:09:54;97470.75;;;3.38;100.00
75788;BME280;64406;50.024;14.492;2023-12-20T03:12:19;97466.97;;;3.34;100.00
75788;BME280;64406;50.024;14.492;2023-12-20T03:14:45;97464.56;;;3.33;100.00
75788;BME280;64406;50.024;14.492;2023-12-20T03:17:11;97470.69;;;3.33;100.00
75788;BME280;64406;50.024;14.492;2023-12-20T03:19:36;97467.78;;;3.35;100.00
75788;BME280;64406;50.024;14.492;2023-12-20T03:22:02;97469.38;;;3.36;100.00
75788;BME280;64406;50.024;14.492;2023-12-20T03:24:28;97464.84;;;3.36;100.00
75788;BME280;64406;50.024;14.492;2023-12-20T03:26:53;97464.31;;;3.34;100.00
75788;BME280;64406;50.024;14.492;2023-12-20T03:29:19;97467.47;;;3.31;100.00
75788;BME280;64406;50.024;14.492;2023-12-20T03:31:44;97461.09;;;3.32;100.00
75788;BME280;64406;50.024;14.492;2023-12-20T03:34:11;97457.38;;;3.33;100.00
75788;BME280;64406;50.024;14.492;2023-12-20T03:36:37;97455.22;;;3.30;100.00
75788;BME280;64406;50.024;14.492;2023-12-20T03:39:03;97455.22;;;3.30;100.00
75788;BME280;64406;50.024;14.492;2023-12-20T03:41:28;97461.59;;;3.29;100.00
75788;BME280;64406;50.024;14.492;2023-12-20T03:43:54;97450.66;;;3.25;100.00
75788;BME280;64406;50.024;14.492;2023-12-20T03:46:19;97456.78;;;3.26;100.00
75788;BME280;64406;50.024;14.492;2023-12-20T03:48:45;97447.41;;;3.23;100.00
75788;BME280;64406;50.024;14.492;2023-12-20T03:51:11;97462.34;;;3.24;100.00
75788;BME280;64406;50.024;14.492;2023-12-20T03:53:36;97453.56;;;3.24;100.00
75788;BME280;64406;50.024;14.492;2023-12-20T03:56:02;97453.25;;;3.20;100.00
75788;BME280;64406;50.024;14.492;2023-12-20T03:58:28;97448.72;;;3.21;100.00
75788;BME280;64406;50.024;14.492;2023-12-20T04:00:53;97447.13;;;3.20;100.00
75788;BME280;64406;50.024;14.492;2023-12-20T04:03:19;97454.06;;;3.21;100.00
75788;BME280;64406;50.024;14.492;2023-12-20T04:05:45;97460.69;;;3.18;100.00
75788;BME280;64406;50.024;14.492;2023-12-20T04:08:10;97459.63;;;3.19;100.00
75788;BME280;64406;50.024;14.492;2023-12-20T04:10:36;97456.16;;;3.19;100.00
75788;BME280;64406;50.024;14.492;2023-12-20T04:13:03;97465.22;;;3.18;100.00
75788;BME280;64406;50.024;14.492;2023-12-20T04:15:29;97463.34;;;3.18;100.00
75788;BME280;64406;50.024;14.492;2023-12-20T04:17:54;97459.31;;;3.16;100.00
75788;BME280;64406;50.024;14.492;2023-12-20T04:20:20;97470.53;;;3.18;100.00
75788;BME280;64406;50.024;14.492;2023-12-20T04:22:45;97461.75;;;3.17;100.00
75788;BME280;64406;50.024;14.492;2023-12-20T04:25:11;97459.28;;;3.11;100.00
75788;BME280;64406;50.024;14.492;2023-12-20T04:27:37;97469.66;;;3.12;100.00
75788;BME280;64406;50.024;14.492;2023-12-20T04:30:02;97462.97;;;3.10;100.00
75788;BME280;64406;50.024;14.492;2023-12-20T04:32:29;97466.44;;;3.10;100.00
75788;BME280;64406;50.024;14.492;2023-12-20T04:34:54;97466.16;;;3.07;100.00
75788;BME280;64406;50.024;14.492;2023-12-20T04:37:20;97462.94;;;3.05;100.00
75788;BME280;64406;50.024;14.492;2023-12-20T04:39:46;97458.97;;;3.07;100.00
75788;BME280;64406;50.024;14.492;2023-12-20T04:42:11;97467.47;;;3.04;100.00
75788;BME280;64406;50.024;14.492;2023-12-20T04:44:37;97465.59;;;3.05;100.00
75788;BME280;64406;50.024;14.492;2023-12-20T04:47:03;97463.69;;;3.00;100.00
75788;BME280;64406;50.024;14.492;2023-12-20T04:49:28;97462.06;;;2.99;100.00
75788;BME280;64406;50.024;14.492;2023-12-20T04:51:54;97469.53;;;3.02;100.00
75788;BME280;64406;50.024;14.492;2023-12-20T04:54:21;97471.66;;;3.00;100.00
75788;BME280;64406;50.024;14.492;2023-12-20T04:56:46;97473.25;;;3.01;100.00
75788;BME280;64406;50.024;14.492;2023-12-20T04:59:12;97463.34;;;2.96;100.00
75788;BME280;64406;50.024;14.492;2023-12-20T05:01:39;97467.41;;;2.99;100.00
75788;BME280;64406;50.024;14.492;2023-12-20T05:04:04;97470.78;;;2.94;100.00
75788;BME280;64406;50.024;14.492;2023-12-20T05:06:30;97468.94;;;2.95;100.00
75788;BME280;64406;50.024;14.492;2023-12-20T05:08:55;97458.78;;;2.92;100.00
75788;BME280;64406;50.024;14.492;2023-12-20T05:11:21;97463.31;;;2.91;100.00
75788;BME280;64406;50.024;14.492;2023-12-20T05:13:47;97457.41;;;2.89;100.00
75788;BME280;64406;50.024;14.492;2023-12-20T05:16:13;97459.28;;;2.89;100.00
75788;BME280;64406;50.024;14.492;2023-12-20T05:18:40;97463.50;;;2.85;100.00
75788;BME280;64406;50.024;14.492;2023-12-20T05:21:06;97464.84;;;2.87;100.00
75788;BME280;64406;50.024;14.492;2023-12-20T05:23:31;97457.19;;;2.91;100.00
75788;BME280;64406;50.024;14.492;2023-12-20T05:25:57;97465.66;;;2.88;100.00
75788;BME280;64406;50.024;14.492;2023-12-20T05:28:24;97471.22;;;2.86;100.00
75788;BME280;64406;50.024;14.492;2023-12-20T05:30:50;97476.28;;;2.88;100.00
75788;BME280;64406;50.024;14.492;2023-12-20T05:33:15;97470.91;;;2.83;100.00
75788;BME280;64406;50.024;14.492;2023-12-20T05:35:41;97476.81;;;2.85;100.00
75788;BME280;64406;50.024;14.492;2023-12-20T05:38:06;97475.69;;;2.81;100.00
75788;BME280;64406;50.024;14.492;2023-12-20T05:40:32;97481.31;;;2.84;100.00
75788;BME280;64406;50.024;14.492;2023-12-20T05:42:57;97488.72;;;2.82;100.00
75788;BME280;64406;50.024;14.492;2023-12-20T05:45:23;97489.28;;;2.84;100.00
75788;BME280;64406;50.024;14.492;2023-12-20T05:47:49;97481.53;;;2.83;100.00
75788;BME280;64406;50.024;14.492;2023-12-20T05:50:15;97479.69;;;2.83;100.00
75788;BME280;64406;50.024;14.492;2023-12-20T05:52:40;97477.81;;;2.84;100.00
75788;BME280;64406;50.024;14.492;2023-12-20T05:55:06;97476.47;;;2.81;100.00
75788;BME280;64406;50.024;14.492;2023-12-20T05:57:32;97480.44;;;2.79;100.00
75788;BME280;64406;50.024;14.492;2023-12-20T05:59:58;97487.03;;;2.76;100.00
75788;BME280;64406;50.024;14.492;2023-12-20T06:02:23;97485.44;;;2.75;100.00
75788;BME280;64406;50.024;14.492;2023-12-20T06:04:49;97490.28;;;2.78;100.00
75788;BME280;64406;50.024;14.492;2023-12-20T06:07:15;97489.47;;;2.78;100.00
75788;BME280;64406;50.024;14.492;2023-12-20T06:09:41;97488.09;;;2.75;100.00
75788;BME280;64406;50.024;14.492;2023-12-20T06:12:07;97486.50;;;2.74;100.00
75788;BME280;64406;50.024;14.492;2023-12-20T06:14:34;97481.19;;;2.74;100.00
75788;BME280;64406;50.024;14.492;2023-12-20T06:16:59;97497.47;;;2.78;100.00
75788;BME280;64406;50.024;14.492;2023-12-20T06:19:27;97495.81;;;2.77;100.00
75788;BME280;64406;50.024;14.492;2023-12-20T06:21:53;97499.78;;;2.74;100.00
75788;BME280;64406;50.024;14.492;2023-12-20T06:24:19;97509.69;;;2.79;100.00
75788;BME280;64406;50.024;14.492;2023-12-20T06:26:45;97505.91;;;2.75;100.00
75788;BME280;64406;50.024;14.492;2023-12-20T06:29:11;97501.41;;;2.75;100.00
75788;BME280;64406;50.024;14.492;2023-12-20T06:31:37;97498.19;;;2.73;100.00
75788;BME280;64406;50.024;14.492;2023-12-20T06:34:02;97494.97;;;2.71;100.00
75788;BME280;64406;50.024;14.492;2023-12-20T06:36:28;97494.47;;;2.74;100.00
75788;BME280;64406;50.024;14.492;2023-12-20T06:38:54;97499.47;;;2.70;100.00
75788;BME280;64406;50.024;14.492;2023-12-20T06:41:19;97500.78;;;2.68;100.00
75788;BME280;64406;50.024;14.492;2023-12-20T06:43:45;97507.94;;;2.67;100.00
75788;BME280;64406;50.024;14.492;2023-12-20T06:46:11;97510.34;;;2.69;100.00
75788;BME280;64406;50.024;14.492;2023-12-20T06:48:39;97515.13;;;2.67;100.00
75788;BME280;64406;50.024;14.492;2023-12-20T06:51:05;97523.19;;;2.72;100.00
75788;BME280;64406;50.024;14.492;2023-12-20T06:53:31;97524.22;;;2.71;100.00
75788;BME280;64406;50.024;14.492;2023-12-20T06:55:57;97521.25;;;2.67;100.00
75788;BME280;64406;50.024;14.492;2023-12-20T06:58:23;97524.16;;;2.66;100.00
75788;BME280;64406;50.024;14.492;2023-12-20T07:00:48;97540.66;;;2.68;100.00
75788;BME280;64406;50.024;14.492;2023-12-20T07:03:14;97539.59;;;2.69;100.00
75788;BME280;64406;50.024;14.492;2023-12-20T07:05:40;97554.75;;;2.68;100.00
75788;BME280;64406;50.024;14.492;2023-12-20T07:08:06;97551.00;;;2.64;100.00
75788;BME280;64406;50.024;14.492;2023-12-20T07:10:32;97558.13;;;2.64;100.00
75788;BME280;64406;50.024;14.492;2023-12-20T07:12:58;97561.38;;;2.66;100.00
75788;BME280;64406;50.024;14.492;2023-12-20T07:15:23;97565.13;;;2.70;100.00
75788;BME280;64406;50.024;14.492;2023-12-20T07:17:49;97564.50;;;2.63;100.00
75788;BME280;64406;50.024;14.492;2023-12-20T07:20:15;97567.25;;;2.68;100.00
75788;BME280;64406;50.024;14.492;2023-12-20T07:22:41;97561.38;;;2.66;100.00
75788;BME280;64406;50.024;14.492;2023-12-20T07:25:07;97581.03;;;2.65;100.00
75788;BME280;64406;50.024;14.492;2023-12-20T07:27:33;97584.56;;;2.70;100.00
75788;BME280;64406;50.024;14.492;2023-12-20T07:29:58;97575.22;;;2.68;100.00
75788;BME280;64406;50.024;14.492;2023-12-20T07:32:24;97586.66;;;2.68;100.00
75788;BME280;64406;50.024;14.492;2023-12-20T07:34:50;97589.31;;;2.68;100.00
75788;BME280;64406;50.024;14.492;2023-12-20T07:37:16;97588.50;;;2.68;100.00
75788;BME280;64406;50.024;14.492;2023-12-20T07:39:41;97587.97;;;2.66;100.00
75788;BME280;64406;50.024;14.492;2023-12-20T07:42:08;97597.28;;;2.68;100.00
75788;BME280;64406;50.024;14.492;2023-12-20T07:44:34;97601.56;;;2.69;100.00
75788;BME280;64406;50.024;14.492;2023-12-20T07:47:01;97595.44;;;2.69;100.00
75788;BME280;64406;50.024;14.492;2023-12-20T07:49:27;97604.56;;;2.73;100.00
75788;BME280;64406;50.024;14.492;2023-12-20T07:51:53;97605.59;;;2.72;100.00
75788;BME280;64406;50.024;14.492;2023-12-20T07:54:18;97599.41;;;2.66;100.00
75788;BME280;64406;50.024;14.492;2023-12-20T07:56:46;97601.63;;;2.75;100.00
75788;BME280;64406;50.024;14.492;2023-12-20T07:59:13;97617.34;;;2.76;100.00
75788;BME280;64406;50.024;14.492;2023-12-20T08:01:39;97614.69;;;2.76;100.00
75788;BME280;64406;50.024;14.492;2023-12-20T08:04:05;97613.41;;;2.79;100.00
75788;BME280;64406;50.024;14.492;2023-12-20T08:06:30;97611.81;;;2.78;100.00
75788;BME280;64406;50.024;14.492;2023-12-20T08:08:56;97603.34;;;2.81;100.00
75788;BME280;64406;50.024;14.492;2023-12-20T08:11:22;97598.81;;;2.81;100.00
75788;BME280;64406;50.024;14.492;2023-12-20T08:13:48;97604.22;;;2.86;100.00
75788;BME280;64406;50.024;14.492;2023-12-20T08:16:14;97613.81;;;2.87;100.00
75788;BME280;64406;50.024;14.492;2023-12-20T08:18:41;97600.00;;;2.90;100.00
75788;BME280;64406;50.024;14.492;2023-12-20T08:21:06;97606.63;;;2.88;100.00
75788;BME280;64406;50.024;14.492;2023-12-20T08:23:35;97602.09;;;2.88;100.00
75788;BME280;64406;50.024;14.492;2023-12-20T08:26:07;97609.03;;;2.89;100.00
75788;BME280;64406;50.024;14.492;2023-12-20T08:28:34;97613.28;;;2.90;100.00
75788;BME280;64406;50.024;14.492;2023-12-20T08:31:00;97610.88;;;2.89;100.00
75788;BME280;64406;50.024;14.492;2023-12-20T08:33:26;97614.94;;;2.91;100.00
75788;BME280;64406;50.024;14.492;2023-12-20T08:35:52;97615.16;;;2.90;100.00
75788;BME280;64406;50.024;14.492;2023-12-20T08:38:17;97631.19;;;2.95;100.00
75788;BME280;64406;50.024;14.492;2023-12-20T08:40:44;97629.34;;;2.95;100.00
75788;BME280;64406;50.024;14.492;2023-12-20T08:43:09;97632.25;;;2.94;100.00
75788;BME280;64406;50.024;14.492;2023-12-20T08:45:35;97620.25;;;2.91;100.00
75788;BME280;64406;50.024;14.492;2023-12-20T08:48:01;97628.78;;;2.93;100.00
75788;BME280;64406;50.024;14.492;2023-12-20T08:50:26;97632.59;;;2.97;100.00
75788;BME280;64406;50.024;14.492;2023-12-20T08:52:52;97635.00;;;2.99;100.00
75788;BME280;64406;50.024;14.492;2023-12-20T08:55:19;97637.31;;;2.95;100.00
75788;BME280;64406;50.024;14.492;2023-12-20T08:57:44;97640.56;;;2.97;100.00
75788;BME280;64406;50.024;14.492;2023-12-20T09:00:11;97625.16;;;2.99;100.00
75788;BME280;64406;50.024;14.492;2023-12-20T09:02:36;97619.09;;;3.04;100.00
75788;BME280;64406;50.024;14.492;2023-12-20T09:05:03;97620.38;;;3.02;100.00
75788;BME280;64406;50.024;14.492;2023-12-20T09:07:29;97631.34;;;3.05;100.00
75788;BME280;64406;50.024;14.492;2023-12-20T09:09:57;97629.06;;;3.14;100.00
75788;BME280;64406;50.024;14.492;2023-12-20T09:12:23;97625.09;;;3.16;100.00
75788;BME280;64406;50.024;14.492;2023-12-20T09:14:50;97625.34;;;3.15;99.99
75788;BME280;64406;50.024;14.492;2023-12-20T09:17:17;97615.34;;;3.22;100.00
75788;BME280;64406;50.024;14.492;2023-12-20T09:19:43;97623.31;;;3.22;99.47
75788;BME280;64406;50.024;14.492;2023-12-20T09:22:11;97624.13;;;3.22;99.71
75788;BME280;64406;50.024;14.492;2023-12-20T09:24:38;97620.03;;;3.37;98.88
75788;BME280;64406;50.024;14.492;2023-12-20T09:27:06;97614.44;;;3.33;99.46
75788;BME280;64406;50.024;14.492;2023-12-20T09:29:32;97615.72;;;3.31;99.82
75788;BME280;64406;50.024;14.492;2023-12-20T09:31:57;97620.47;;;3.28;100.00
75788;BME280;64406;50.024;14.492;2023-12-20T09:34:24;97610.22;;;3.37;98.54
75788;BME280;64406;50.024;14.492;2023-12-20T09:36:51;97626.00;;;3.44;98.35
75788;BME280;64406;50.024;14.492;2023-12-20T09:39:18;97621.72;;;3.43;98.35
75788;BME280;64406;50.024;14.492;2023-12-20T09:41:45;97620.97;;;3.47;98.58
75788;BME280;64406;50.024;14.492;2023-12-20T09:44:14;97627.44;;;3.51;97.15
75788;BME280;64406;50.024;14.492;2023-12-20T09:46:43;97633.31;;;3.53;96.92
75788;BME280;64406;50.024;14.492;2023-12-20T09:49:10;97632.56;;;3.58;96.61
75788;BME280;64406;50.024;14.492;2023-12-20T09:51:36;97618.00;;;3.66;95.94
75788;BME280;64406;50.024;14.492;2023-12-20T09:54:05;97618.81;;;3.66;97.13
75788;BME280;64406;50.024;14.492;2023-12-20T09:56:30;97619.63;;;3.67;96.05
75788;BME280;64406;50.024;14.492;2023-12-20T09:58:57;97622.84;;;3.69;96.19
75788;BME280;64406;50.024;14.492;2023-12-20T10:01:23;97615.50;;;3.81;96.11
75788;BME280;64406;50.024;14.492;2023-12-20T10:03:51;97620.44;;;3.94;94.04
75788;BME280;64406;50.024;14.492;2023-12-20T10:06:19;97615.38;;;3.93;94.18
75788;BME280;64406;50.024;14.492;2023-12-20T10:08:45;97619.19;;;4.02;94.17
75788;BME280;64406;50.024;14.492;2023-12-20T10:11:11;97614.88;;;3.96;93.66
75788;BME280;64406;50.024;14.492;2023-12-20T10:13:41;97614.97;;;4.06;94.10
75788;BME280;64406;50.024;14.492;2023-12-20T10:16:07;97596.22;;;3.96;94.54
75788;BME280;64406;50.024;14.492;2023-12-20T10:18:36;97597.06;;;3.74;94.54
75788;BME280;64406;50.024;14.492;2023-12-20T10:21:01;97600.09;;;3.61;95.30
75788;BME280;64406;50.024;14.492;2023-12-20T10:23:29;97598.38;;;3.72;94.60
75788;BME280;64406;50.024;14.492;2023-12-20T10:25:59;97598.34;;;3.94;93.98
75788;BME280;64406;50.024;14.492;2023-12-20T10:28:25;97599.19;;;3.99;93.17
75788;BME280;64406;50.024;14.492;2023-12-20T10:30:54;97603.31;;;4.12;93.38
75788;BME280;64406;50.024;14.492;2023-12-20T10:33:25;97612.19;;;3.96;91.96
75788;BME280;64406;50.024;14.492;2023-12-20T10:35:52;97592.00;;;4.00;92.65
75788;BME280;64406;50.024;14.492;2023-12-20T10:38:18;97590.06;;;3.95;92.25
75788;BME280;64406;50.024;14.492;2023-12-20T10:40:45;97593.97;;;4.09;92.36
75788;BME280;64406;50.024;14.492;2023-12-20T10:43:11;97603.59;;;4.16;91.35
75788;BME280;64406;50.024;14.492;2023-12-20T10:45:37;97599.00;;;4.06;90.89
75788;BME280;64406;50.024;14.492;2023-12-20T10:48:04;97592.66;;;4.12;91.24
75788;BME280;64406;50.024;14.492;2023-12-20T10:50:30;97598.72;;;4.07;91.00
75788;BME280;64406;50.024;14.492;2023-12-20T10:52:57;97578.31;;;4.18;91.46
75788;BME280;64406;50.024;14.492;2023-12-20T10:55:24;97573.25;;;4.17;90.27
75788;BME280;64406;50.024;14.492;2023-12-20T10:58:09;97568.75;;;4.22;89.70
75788;BME280;64406;50.024;14.492;2023-12-20T11:00:39;97557.03;;;4.23;90.51
75788;BME280;64406;50.024;14.492;2023-12-20T11:03:09;97557.28;;;4.22;90.21
75788;BME280;64406;50.024;14.492;2023-12-20T11:05:59;97565.25;;;4.17;91.10
75788;BME280;64406;50.024;14.492;2023-12-20T11:08:33;97567.59;;;4.45;90.06
75788;BME280;64406;50.024;14.492;2023-12-20T11:11:15;97578.50;;;4.39;88.17
75788;BME280;64406;50.024;14.492;2023-12-20T11:16:18;97562.53;;;4.44;89.91
75788;BME280;64406;50.024;14.492;2023-12-20T11:18:47;97549.56;;;4.57;89.37
75788;BME280;64406;50.024;14.492;2023-12-20T11:21:12;97574.63;;;4.56;89.72
75788;BME280;64406;50.024;14.492;2023-12-20T11:23:44;97547.78;;;4.31;90.20
75788;BME280;64406;50.024;14.492;2023-12-20T11:26:11;97540.25;;;4.23;90.76
75788;BME280;64406;50.024;14.492;2023-12-20T11:28:41;97548.25;;;4.23;90.14
75788;BME280;64406;50.024;14.492;2023-12-20T11:31:06;97546.13;;;4.25;89.86
75788;BME280;64406;50.024;14.492;2023-12-20T11:33:36;97554.41;;;4.28;89.05
75788;BME280;64406;50.024;14.492;2023-12-20T11:36:02;97537.44;;;4.40;88.14
75788;BME280;64406;50.024;14.492;2023-12-20T11:38:57;97547.25;;;4.34;87.81
75788;BME280;64406;50.024;14.492;2023-12-20T11:41:23;97548.63;;;4.36;88.08
75788;BME280;64406;50.024;14.492;2023-12-20T11:43:53;97553.16;;;4.36;87.00
75788;BME280;64406;50.024;14.492;2023-12-20T11:46:19;97560.84;;;4.32;86.47
75788;BME280;64406;50.024;14.492;2023-12-20T11:48:45;97532.47;;;4.16;84.80
75788;BME280;64406;50.024;14.492;2023-12-20T11:51:11;97538.75;;;4.05;86.20
75788;BME280;64406;50.024;14.492;2023-12-20T11:53:40;97525.66;;;3.98;90.28
75788;BME280;64406;50.024;14.492;2023-12-20T11:56:06;97543.59;;;3.81;91.61
75788;BME280;64406;50.024;14.492;2023-12-20T11:58:33;97535.31;;;3.77;93.77
75788;BME280;64406;50.024;14.492;2023-12-20T12:00:59;97534.13;;;3.68;94.95
75788;BME280;64406;50.024;14.492;2023-12-20T12:03:25;97537.19;;;3.77;95.85
75788;BME280;64406;50.024;14.492;2023-12-20T12:05:51;97523.47;;;3.63;96.49
75788;BME280;64406;50.024;14.492;2023-12-20T12:08:17;97510.81;;;3.53;96.18
75788;BME280;64406;50.024;14.492;2023-12-20T12:10:46;97514.94;;;3.66;95.37
75788;BME280;64406;50.024;14.492;2023-12-20T12:13:12;97522.47;;;3.74;95.05
75788;BME280;64406;50.024;14.492;2023-12-20T12:15:39;97527.31;;;3.77;92.64
75788;BME280;64406;50.024;14.492;2023-12-20T12:18:07;97514.53;;;3.79;91.19
75788;BME280;64406;50.024;14.492;2023-12-20T12:20:32;97503.94;;;3.85;90.58
75788;BME280;64406;50.024;14.492;2023-12-20T12:23:05;97512.28;;;3.93;90.53
75788;BME280;64406;50.024;14.492;2023-12-20T12:25:32;97512.31;;;3.98;89.84
75788;BME280;64406;50.024;14.492;2023-12-20T12:27:58;97519.56;;;4.03;88.56
75788;BME280;64406;50.024;14.492;2023-12-20T12:30:24;97505.19;;;4.09;87.70
75788;BME280;64406;50.024;14.492;2023-12-20T12:32:51;97511.94;;;4.17;87.18
75788;BME280;64406;50.024;14.492;2023-12-20T12:35:17;97496.97;;;4.16;85.91
75788;BME280;64406;50.024;14.492;2023-12-20T12:37:43;97499.19;;;4.24;86.42
75788;BME280;64406;50.024;14.492;2023-12-20T12:40:14;97496.00;;;4.27;84.61
75788;BME280;64406;50.024;14.492;2023-12-20T12:42:41;97481.66;;;4.33;83.53
75788;BME280;64406;50.024;14.492;2023-12-20T12:45:08;97481.59;;;4.23;nan
75788;BME280;64406;50.024;14.492;2023-12-20T12:47:34;97489.88;;;4.26;82.59
75788;BME280;64406;50.024;14.492;2023-12-20T12:50:00;97488.53;;;4.24;82.73
75788;BME280;64406;50.024;14.492;2023-12-20T12:52:26;97471.44;;;4.20;81.33